createdAt,value
2024-04-08T08:26:42.851Z,47.37
2024-04-08T08:29:10.558Z,47.71
2024-04-08T08:31:38.127Z,46.66
2024-04-08T08:34:06.549Z,47.14
2024-04-08T08:36:33.796Z,47.78
2024-04-08T08:39:01.546Z,47.67
2024-04-08T08:41:31.843Z,47.43
2024-04-08T08:44:03.014Z,46.48
2024-04-08T08:46:30.643Z,46.30
2024-04-08T08:49:02.626Z,46.44
2024-04-08T08:51:31.531Z,46.00
2024-04-08T08:53:58.913Z,47.77
2024-04-08T08:56:31.732Z,45.39
2024-04-08T08:59:02.365Z,45.13
2024-04-08T09:01:32.555Z,45.41
2024-04-08T09:04:08.635Z,43.94
2024-04-08T09:06:38.399Z,42.54
2024-04-08T09:09:08.384Z,40.57
2024-04-08T09:11:46.832Z,37.98
2024-04-08T09:14:14.170Z,39.27
2024-04-08T09:16:43.257Z,42.18
2024-04-08T09:19:11.025Z,41.30
2024-04-08T09:21:41.476Z,40.96
2024-04-08T09:24:09.578Z,40.04
2024-04-08T09:26:36.963Z,39.10
2024-04-08T09:29:04.467Z,39.30
2024-04-08T09:31:32.988Z,38.70
2024-04-08T09:34:00.524Z,39.03
2024-04-08T09:36:29.669Z,38.33
2024-04-08T09:39:00.941Z,38.45
2024-04-08T09:41:30.514Z,38.07
2024-04-08T09:44:00.910Z,36.55
2024-04-08T09:46:29.416Z,36.10
2024-04-08T09:48:58.838Z,36.12
2024-04-08T09:51:30.947Z,36.00
2024-04-08T09:53:58.260Z,36.21
2024-04-08T09:56:31.494Z,36.01
2024-04-08T09:59:04.922Z,36.35
2024-04-08T10:01:32.352Z,35.83
2024-04-08T10:04:03.639Z,35.88
2024-04-08T10:06:31.464Z,35.85
2024-04-08T10:08:59.502Z,36.23
2024-04-08T10:11:27.324Z,35.94
2024-04-08T10:13:54.598Z,37.36
2024-04-08T10:16:21.966Z,36.38
2024-04-08T10:18:56.721Z,36.21
2024-04-08T10:21:26.961Z,36.11
2024-04-08T10:23:55.402Z,36.08
2024-04-08T10:26:27.821Z,35.69
2024-04-08T10:28:55.355Z,35.86
2024-04-08T10:31:28.356Z,35.96
2024-04-08T10:33:55.688Z,35.53
2024-04-08T10:36:22.923Z,35.68
2024-04-08T10:38:50.814Z,36.43
2024-04-08T10:41:18.436Z,36.44
2024-04-08T10:43:46.671Z,35.92
2024-04-08T10:46:19.226Z,36.36
2024-04-08T10:48:46.663Z,36.67
2024-04-08T10:51:14.322Z,35.52
2024-04-08T10:53:42.277Z,35.62
2024-04-08T10:56:09.998Z,35.84
2024-04-08T10:58:37.294Z,35.62
2024-04-08T11:01:06.393Z,34.76
2024-04-08T11:03:33.714Z,35.74
2024-04-08T11:06:01.339Z,34.66
2024-04-08T11:08:29.378Z,42.49
2024-04-08T11:11:01.057Z,34.98
2024-04-08T11:13:29.733Z,34.57
2024-04-08T11:15:57.312Z,34.73
2024-04-08T11:18:24.697Z,34.44
2024-04-08T11:20:52.105Z,34.26
2024-04-08T11:23:21.233Z,34.08
2024-04-08T11:25:52.287Z,34.17
2024-04-08T11:28:19.577Z,35.48
2024-04-08T11:30:47.785Z,34.33
2024-04-08T11:33:15.496Z,35.14
2024-04-08T11:35:42.786Z,35.02
2024-04-08T11:38:25.926Z,34.37
2024-04-08T11:41:04.409Z,35.25
2024-04-08T11:43:33.451Z,35.17
2024-04-08T11:46:04.538Z,34.54
2024-04-08T11:48:33.231Z,34.00
2024-04-08T11:51:00.850Z,33.75
2024-04-08T11:53:28.134Z,34.32
2024-04-08T11:55:55.599Z,34.94
2024-04-08T11:58:23.085Z,35.09
2024-04-08T12:00:50.731Z,34.35
2024-04-08T12:03:18.227Z,35.25
2024-04-08T12:05:46.031Z,34.26
2024-04-08T12:08:13.480Z,34.14
2024-04-08T12:10:40.947Z,34.30
2024-04-08T12:13:19.495Z,33.52
2024-04-08T12:15:48.641Z,33.54
2024-04-08T12:18:16.326Z,34.22
2024-04-08T12:20:43.797Z,34.23
2024-04-08T12:23:14.855Z,33.99
2024-04-08T12:25:42.593Z,34.12
2024-04-08T12:28:10.700Z,33.06
2024-04-08T12:30:38.288Z,33.93
2024-04-08T12:33:05.776Z,34.03
2024-04-08T12:35:33.162Z,33.99
2024-04-08T12:38:00.920Z,33.68
2024-04-08T12:40:28.402Z,33.45
2024-04-08T12:42:55.799Z,33.41
2024-04-08T12:45:23.259Z,33.36
2024-04-08T12:47:51.846Z,32.74
2024-04-08T12:50:19.490Z,31.87
2024-04-08T12:52:47.043Z,31.46
2024-04-08T12:55:14.748Z,31.36
2024-04-08T12:57:44.955Z,31.84
2024-04-08T13:00:13.946Z,31.59
2024-04-08T13:02:41.572Z,31.63
2024-04-08T13:05:09.290Z,31.86
2024-04-08T13:07:36.595Z,31.91
2024-04-08T13:10:04.284Z,31.50
2024-04-08T13:12:32.009Z,31.96
2024-04-08T13:14:59.396Z,32.27
2024-04-08T13:17:26.830Z,32.90
2024-04-08T13:19:54.190Z,32.71
2024-04-08T13:22:21.564Z,32.81
2024-04-08T13:24:48.839Z,32.32
2024-04-08T13:27:16.192Z,30.73
2024-04-08T13:29:43.715Z,31.04
2024-04-08T13:32:12.933Z,31.47
2024-04-08T13:34:40.331Z,31.93
2024-04-08T13:37:08.923Z,32.33
2024-04-08T13:39:36.343Z,33.05
2024-04-08T13:42:04.539Z,32.97
2024-04-08T13:44:31.875Z,32.87
2024-04-08T13:46:59.176Z,32.90
2024-04-08T13:49:26.669Z,32.20
2024-04-08T13:51:57.468Z,32.21
2024-04-08T13:54:29.296Z,31.67
2024-04-08T13:56:56.812Z,32.49
2024-04-08T13:59:24.265Z,31.56
2024-04-08T14:01:51.892Z,31.04
2024-04-08T14:04:22.493Z,31.52
2024-04-08T14:06:50.006Z,31.45
2024-04-08T14:09:17.300Z,31.95
2024-04-08T14:11:46.034Z,31.68
2024-04-08T14:14:13.636Z,31.88
2024-04-08T14:16:41.104Z,32.06
2024-04-08T14:19:08.534Z,31.39
2024-04-08T14:21:35.812Z,31.24
2024-04-08T14:24:04.516Z,31.18
2024-04-08T14:26:31.803Z,31.29
2024-04-08T14:28:59.040Z,31.46
2024-04-08T14:31:26.795Z,31.78
2024-04-08T14:33:55.350Z,31.98
2024-04-08T14:36:25.451Z,32.14
2024-04-08T14:39:05.608Z,32.77
2024-04-08T14:41:43.328Z,32.09
2024-04-08T14:44:14.898Z,32.31
2024-04-08T14:46:46.772Z,32.18
2024-04-08T14:49:14.360Z,31.67
2024-04-08T14:51:47.188Z,32.80
2024-04-08T14:54:19.158Z,32.32
2024-04-08T14:56:47.200Z,31.84
2024-04-08T14:59:14.516Z,31.80
2024-04-08T15:01:41.803Z,32.05
2024-04-08T15:04:10.473Z,32.03
2024-04-08T15:06:38.467Z,31.81
2024-04-08T15:09:06.884Z,30.91
2024-04-08T15:11:35.293Z,31.37
2024-04-08T15:14:02.815Z,31.56
2024-04-08T15:16:30.278Z,30.98
2024-04-08T15:18:57.934Z,31.02
2024-04-08T15:21:25.487Z,31.11
2024-04-08T15:23:52.897Z,31.09
2024-04-08T15:26:20.439Z,31.24
2024-04-08T15:28:48.271Z,31.46
2024-04-08T15:31:15.898Z,31.02
2024-04-08T15:33:43.347Z,31.07
2024-04-08T15:36:10.796Z,31.33
2024-04-08T15:38:38.684Z,31.10
2024-04-08T15:41:06.094Z,31.36
2024-04-08T15:43:34.355Z,30.87
2024-04-08T15:46:04.737Z,29.54
2024-04-08T15:48:34.198Z,28.75
2024-04-08T15:51:05.411Z,28.33
2024-04-08T15:53:36.698Z,27.95
2024-04-08T15:56:04.458Z,27.16
2024-04-08T15:58:31.836Z,26.61
2024-04-08T16:01:01.417Z,26.05
2024-04-08T16:03:29.542Z,25.91
2024-04-08T16:06:13.297Z,25.77
2024-04-08T16:08:44.511Z,25.31
2024-04-08T16:11:22.896Z,25.24
2024-04-08T16:13:50.799Z,25.29
2024-04-08T16:16:18.473Z,26.56
2024-04-08T16:18:46.223Z,26.78
2024-04-08T16:21:13.862Z,27.54
2024-04-08T16:23:54.424Z,27.56
2024-04-08T16:26:25.347Z,27.61
2024-04-08T16:29:00.839Z,28.38
2024-04-08T16:31:34.071Z,28.21
2024-04-08T16:34:02.339Z,29.00
2024-04-08T16:36:31.598Z,29.51
2024-04-08T16:38:59.932Z,29.91
2024-04-08T16:41:47.042Z,30.51
2024-04-08T16:44:14.432Z,31.21
2024-04-08T16:46:42.506Z,31.44
2024-04-08T16:49:09.979Z,31.26
2024-04-08T16:51:37.400Z,32.04
2024-04-08T16:54:05.887Z,32.00
2024-04-08T16:56:33.398Z,32.25
2024-04-08T16:59:01.463Z,32.94
2024-04-08T17:01:29.055Z,33.33
2024-04-08T17:03:57.048Z,33.71
2024-04-08T17:06:24.726Z,34.45
2024-04-08T17:08:52.886Z,33.94
2024-04-08T17:11:21.196Z,34.48
2024-04-08T17:13:48.618Z,34.25
2024-04-08T17:16:16.030Z,34.84
2024-04-08T17:18:43.721Z,34.91
2024-04-08T17:21:11.970Z,35.03
2024-04-08T17:23:39.447Z,34.93
2024-04-08T17:26:07.223Z,34.93
2024-04-08T17:28:36.887Z,35.87
2024-04-08T17:31:05.605Z,34.81
2024-04-08T17:33:34.975Z,34.81
2024-04-08T17:36:05.029Z,35.04
2024-04-08T17:38:39.380Z,34.82
2024-04-08T17:41:09.118Z,34.71
2024-04-08T17:43:41.513Z,34.72
2024-04-08T17:46:09.168Z,35.10
2024-04-08T17:48:38.823Z,35.21
2024-04-08T17:51:08.254Z,35.29
2024-04-08T17:53:39.532Z,35.57
2024-04-08T17:56:13.444Z,35.46
2024-04-08T17:58:41.216Z,35.35
2024-04-08T18:01:12.932Z,35.84
2024-04-08T18:03:41.711Z,35.76
2024-04-08T18:06:21.722Z,35.64
2024-04-08T18:08:51.031Z,35.99
2024-04-08T18:13:48.817Z,35.91
2024-04-08T18:16:18.431Z,36.52
2024-04-08T18:18:49.965Z,36.14
2024-04-08T18:21:19.034Z,36.04
2024-04-08T18:23:47.419Z,36.24
2024-04-08T18:26:15.717Z,36.46
2024-04-08T18:28:45.840Z,36.65
2024-04-08T18:31:15.255Z,37.00
2024-04-08T18:33:45.550Z,37.23
2024-04-08T18:36:14.879Z,37.41
2024-04-08T18:38:42.890Z,38.00
2024-04-08T18:41:12.736Z,38.37
2024-04-08T18:43:42.065Z,37.90
2024-04-08T18:46:11.763Z,38.09
2024-04-08T18:48:39.414Z,38.48
2024-04-08T18:51:10.329Z,38.55
2024-04-08T18:53:37.755Z,38.41
2024-04-08T18:56:06.509Z,39.03
2024-04-08T18:58:33.981Z,39.13
2024-04-08T19:01:07.262Z,38.98
2024-04-08T19:03:40.716Z,39.18
2024-04-08T19:06:12.750Z,38.73
2024-04-08T19:08:41.365Z,39.26
2024-04-08T19:11:08.724Z,39.60
2024-04-08T19:13:36.243Z,39.39
2024-04-08T19:16:04.442Z,39.37
2024-04-08T19:18:34.694Z,39.28
2024-04-08T19:21:09.859Z,39.17
2024-04-08T19:23:37.861Z,39.73
2024-04-08T19:26:06.150Z,40.00
2024-04-08T19:28:34.066Z,39.68
2024-04-08T19:31:03.572Z,40.06
2024-04-08T19:33:31.195Z,39.57
2024-04-08T19:35:59.515Z,39.69
2024-04-08T19:38:27.247Z,40.15
2024-04-08T19:41:02.414Z,40.23
2024-04-08T19:43:30.143Z,40.65
2024-04-08T19:46:06.422Z,39.82
2024-04-08T19:48:40.453Z,40.25
2024-04-08T19:51:22.898Z,40.23
2024-04-08T19:53:54.790Z,41.17
2024-04-08T19:56:26.340Z,40.94
2024-04-08T19:58:54.554Z,40.82
2024-04-08T20:01:22.744Z,41.22
2024-04-08T20:03:50.606Z,41.33
2024-04-08T20:06:18.201Z,42.30
2024-04-08T20:08:45.595Z,43.33
2024-04-08T20:11:13.259Z,41.75
2024-04-08T20:13:42.711Z,42.03
2024-04-08T20:16:19.616Z,41.54
2024-04-08T20:18:49.387Z,42.02
2024-04-08T20:21:18.434Z,42.86
2024-04-08T20:23:46.060Z,42.59
2024-04-08T20:26:13.827Z,42.45
2024-04-08T20:28:42.448Z,42.74
2024-04-08T20:31:10.637Z,43.33
2024-04-08T20:33:39.243Z,43.39
2024-04-08T20:36:09.180Z,43.81
2024-04-08T20:38:37.324Z,43.73
2024-04-08T20:41:08.987Z,43.75
2024-04-08T20:43:38.438Z,43.74
2024-04-08T20:46:06.759Z,44.00
2024-04-08T20:48:35.870Z,44.12
2024-04-08T20:51:05.502Z,43.86
2024-04-08T20:53:33.988Z,43.72
2024-04-08T20:56:04.173Z,44.15
2024-04-08T20:58:31.907Z,44.64
2024-04-08T21:01:03.636Z,44.50
2024-04-08T21:03:31.295Z,44.83
2024-04-08T21:06:08.441Z,44.44
2024-04-08T21:08:37.539Z,45.59
2024-04-08T21:11:06.352Z,45.06
2024-04-08T21:13:35.148Z,45.65
2024-04-08T21:16:06.007Z,45.22
2024-04-08T21:18:35.063Z,47.00
2024-04-08T21:21:10.856Z,45.08
2024-04-08T21:23:39.987Z,45.56
2024-04-08T21:26:18.406Z,45.59
2024-04-08T21:28:47.227Z,45.97
2024-04-08T21:31:15.762Z,45.87
2024-04-08T21:33:47.186Z,46.60
2024-04-08T21:36:15.706Z,46.54
2024-04-08T21:38:43.034Z,47.30
2024-04-08T21:41:11.917Z,47.39
2024-04-08T21:43:41.107Z,47.38
2024-04-08T21:46:09.828Z,47.41
2024-04-08T21:48:37.972Z,47.83
2024-04-08T21:51:08.113Z,48.25
2024-04-08T21:53:36.168Z,48.64
2024-04-08T21:56:05.784Z,49.02
2024-04-08T21:58:37.612Z,49.40
2024-04-08T22:01:10.513Z,49.76
2024-04-08T22:03:39.316Z,50.50
2024-04-08T22:06:12.148Z,50.93
2024-04-08T22:08:44.285Z,50.95
2024-04-08T22:11:12.807Z,51.20
2024-04-08T22:13:41.140Z,51.32
2024-04-08T22:16:09.061Z,52.26
2024-04-08T22:18:37.679Z,51.86
2024-04-08T22:21:05.572Z,52.39
2024-04-08T22:23:33.475Z,51.59
2024-04-08T22:26:01.086Z,52.12
2024-04-08T22:28:28.558Z,52.59
2024-04-08T22:30:56.014Z,53.10
2024-04-08T22:33:23.587Z,52.85
2024-04-08T22:35:51.809Z,53.95
2024-04-08T22:38:19.281Z,52.67
2024-04-08T22:40:46.770Z,53.79
2024-04-08T22:43:14.030Z,53.37
2024-04-08T22:45:44.187Z,54.06
2024-04-08T22:48:12.274Z,55.00
2024-04-08T22:50:39.747Z,55.06
2024-04-08T22:53:07.071Z,54.90
2024-04-08T22:55:34.438Z,55.57
2024-04-08T22:58:02.749Z,55.38
2024-04-08T23:00:30.485Z,56.14
2024-04-08T23:02:59.753Z,56.64
2024-04-08T23:05:28.132Z,57.12
2024-04-08T23:07:55.564Z,57.16
2024-04-08T23:10:23.779Z,57.75
2024-04-08T23:12:51.162Z,57.19
2024-04-08T23:15:18.811Z,57.64
2024-04-08T23:17:46.511Z,58.51
2024-04-08T23:20:14.235Z,58.75
2024-04-08T23:22:41.530Z,59.60
2024-04-08T23:25:09.973Z,59.18
2024-04-08T23:27:37.516Z,59.61
2024-04-08T23:30:07.117Z,60.03
2024-04-08T23:32:35.002Z,60.22
2024-04-08T23:35:03.813Z,60.46
2024-04-08T23:37:31.798Z,61.32
2024-04-08T23:39:59.171Z,60.15
2024-04-08T23:42:26.569Z,61.03
2024-04-08T23:44:54.004Z,61.19
2024-04-08T23:47:21.376Z,61.79
2024-04-08T23:49:49.430Z,62.04
2024-04-08T23:52:16.755Z,62.38
2024-04-08T23:54:44.274Z,62.20
2024-04-08T23:57:11.833Z,61.30
2024-04-08T23:59:39.330Z,60.48
